Time;durP1;ratioP1;P1;durP2;ratioP2;P2;SDS_P1;SDS_P2;PMS_P1;PMS_P2;Temp;Humidity;BMP_temperature;BMP_pressure;BME280_temperature;BME280_humidity;BME280_pressure;Samples;Min_cycle;Max_cycle;Signal;HPM_P1;HPM_P2
2024/01/23 00:00:48;;;;;;;23.23;6.40;;;8.30;86.70;;;;;;5038162;28;20032;-79
2024/01/23 00:03:13;;;;;;;34.55;6.60;;;8.20;86.90;;;;;;5036901;28;20389;-75
2024/01/23 00:05:39;;;;;;;23.45;5.63;;;8.30;87.00;;;;;;5039647;28;20158;-75
2024/01/23 00:08:05;;;;;;;25.38;4.95;;;8.20;87.20;;;;;;5030814;28;20097;-76
2024/01/23 00:10:30;;;;;;;34.40;5.57;;;8.20;87.30;;;;;;5039870;28;20040;-79
2024/01/23 00:12:56;;;;;;;26.90;5.80;;;8.20;87.50;;;;;;5038591;28;20021;-80
2024/01/23 00:15:22;;;;;;;28.27;6.05;;;8.20;87.40;;;;;;5033530;28;20037;-75
2024/01/23 00:17:47;;;;;;;25.17;5.32;;;8.20;87.50;;;;;;5045941;28;20043;-82
2024/01/23 00:20:13;;;;;;;30.20;6.50;;;8.10;87.40;;;;;;5034842;28;20036;-77
2024/01/23 00:22:39;;;;;;;34.58;7.18;;;8.10;87.50;;;;;;5040418;28;20021;-76
2024/01/23 00:25:05;;;;;;;32.55;5.75;;;8.10;87.60;;;;;;5035812;28;20037;-77
2024/01/23 00:27:31;;;;;;;25.02;5.28;;;8.10;87.70;;;;;;5048564;28;20382;-76
2024/01/23 00:29:57;;;;;;;31.58;6.75;;;8.10;87.70;;;;;;5039335;28;20036;-76
2024/01/23 00:32:25;;;;;;;31.08;6.47;;;8.10;87.40;;;;;;5044360;28;20024;-75
2024/01/23 00:34:51;;;;;;;21.17;5.40;;;8.10;87.30;;;;;;5039753;28;20375;-75
2024/01/23 00:37:16;;;;;;;29.80;6.00;;;8.10;87.30;;;;;;5031106;28;20055;-76
2024/01/23 00:39:42;;;;;;;31.20;6.80;;;8.10;87.40;;;;;;5040978;28;20438;-76
2024/01/23 00:42:08;;;;;;;23.77;5.15;;;8.10;87.40;;;;;;5036680;28;20111;-75
2024/01/23 00:44:35;;;;;;;26.73;5.75;;;8.10;87.30;;;;;;5030644;28;20385;-76
2024/01/23 00:47:01;;;;;;;28.33;5.80;;;8.10;87.30;;;;;;5039998;28;20025;-75
2024/01/23 00:49:26;;;;;;;26.88;6.00;;;8.10;87.30;;;;;;5038484;28;20048;-75
2024/01/23 00:51:52;;;;;;;24.92;5.68;;;8.00;87.20;;;;;;5038305;28;20103;-75
2024/01/23 00:54:18;;;;;;;23.40;6.15;;;8.10;87.20;;;;;;5041652;28;20406;-83
2024/01/23 00:56:44;;;;;;;22.30;6.07;;;8.00;87.10;;;;;;5036419;28;20067;-76
2024/01/23 00:59:13;;;;;;;30.52;6.45;;;8.10;86.90;;;;;;5038961;28;20037;-75
2024/01/23 01:01:39;;;;;;;30.20;6.35;;;8.10;86.70;;;;;;5047803;28;20083;-75
2024/01/23 01:04:05;;;;;;;31.13;7.10;;;8.10;86.50;;;;;;5046825;28;20492;-75
2024/01/23 01:06:31;;;;;;;26.70;6.28;;;8.00;86.50;;;;;;5039914;28;20028;-75
2024/01/23 01:08:58;;;;;;;19.25;5.07;;;8.00;86.50;;;;;;5035419;28;20037;-75
2024/01/23 01:11:24;;;;;;;27.77;6.80;;;8.00;86.30;;;;;;5039359;28;20373;-78
2024/01/23 01:13:50;;;;;;;26.70;6.32;;;8.00;86.10;;;;;;5030988;28;20117;-76
2024/01/23 01:16:16;;;;;;;31.17;5.38;;;8.00;86.20;;;;;;5044721;28;20017;-84
2024/01/23 01:18:42;;;;;;;25.70;5.15;;;8.00;85.90;;;;;;5037697;28;20024;-75
2024/01/23 01:21:08;;;;;;;23.45;6.10;;;8.00;85.70;;;;;;5041412;28;20384;-75
2024/01/23 01:23:34;;;;;;;19.20;5.10;;;8.00;85.50;;;;;;5035952;28;20023;-76
2024/01/23 01:26:01;;;;;;;27.75;5.18;;;7.90;85.50;;;;;;5043707;28;20021;-75
2024/01/23 01:28:27;;;;;;;25.65;5.07;;;7.90;85.50;;;;;;5042235;28;20044;-76
2024/01/23 01:30:53;;;;;;;28.25;5.93;;;7.80;85.70;;;;;;5043778;28;20033;-76
2024/01/23 01:33:20;;;;;;;24.25;5.32;;;7.80;85.70;;;;;;5043220;28;21268;-76
2024/01/23 01:35:52;;;;;;;23.15;4.97;;;7.80;85.60;;;;;;5034382;28;20064;-76
2024/01/23 01:38:18;;;;;;;21.58;4.40;;;7.80;85.40;;;;;;5040777;28;20147;-75
2024/01/23 01:40:44;;;;;;;25.60;4.40;;;7.70;85.50;;;;;;5033073;28;20033;-75
2024/01/23 01:43:25;;;;;;;22.85;5.53;;;7.80;85.30;;;;;;5033105;28;20025;-76
2024/01/23 01:46:07;;;;;;;24.63;5.88;;;7.80;85.20;;;;;;5038216;28;20123;-82
2024/01/23 01:48:33;;;;;;;22.45;4.68;;;7.70;85.20;;;;;;5041397;28;20029;-76
2024/01/23 01:50:59;;;;;;;18.27;5.05;;;7.70;85.50;;;;;;5041456;28;20021;-76
2024/01/23 01:53:25;;;;;;;23.98;4.60;;;7.60;85.40;;;;;;5039566;28;20021;-76
2024/01/23 01:55:50;;;;;;;24.98;4.90;;;7.60;85.40;;;;;;5039163;28;20083;-76
2024/01/23 01:58:17;;;;;;;18.48;4.93;;;7.60;85.30;;;;;;5043166;28;20021;-76
2024/01/23 02:00:43;;;;;;;23.10;4.43;;;7.60;85.20;;;;;;5038405;28;20370;-80
2024/01/23 02:03:10;;;;;;;18.77;4.32;;;7.60;85.10;;;;;;5041937;28;20033;-75
2024/01/23 02:05:36;;;;;;;19.05;5.03;;;7.60;84.80;;;;;;5037726;28;20434;-76
2024/01/23 02:08:02;;;;;;;22.77;4.85;;;7.60;84.80;;;;;;5027968;28;20033;-76
2024/01/23 02:10:27;;;;;;;21.15;4.63;;;7.70;84.80;;;;;;5043192;28;20417;-76
2024/01/23 02:12:53;;;;;;;22.85;4.90;;;7.60;85.10;;;;;;5036396;28;20008;-80
2024/01/23 02:15:20;;;;;;;24.13;4.25;;;7.60;85.30;;;;;;5035614;28;20029;-76
2024/01/23 02:17:45;;;;;;;23.05;4.28;;;7.50;85.30;;;;;;5035383;28;20021;-76
2024/01/23 02:20:11;;;;;;;21.27;4.65;;;7.60;85.40;;;;;;5042313;28;20036;-76
2024/01/23 02:22:37;;;;;;;19.85;5.32;;;7.60;85.30;;;;;;5031537;28;20404;-76
2024/01/23 02:25:02;;;;;;;30.67;5.32;;;7.60;85.40;;;;;;5032600;28;20407;-77
2024/01/23 02:27:28;;;;;;;24.65;5.65;;;7.50;85.50;;;;;;5039030;28;20045;-76
2024/01/23 02:29:54;;;;;;;18.65;4.70;;;7.50;85.90;;;;;;5043050;28;20036;-76
2024/01/23 02:32:19;;;;;;;23.85;4.50;;;7.50;86.10;;;;;;5045019;28;20056;-76
2024/01/23 02:34:45;;;;;;;25.48;5.45;;;7.40;85.90;;;;;;5025346;28;20045;-76
2024/01/23 02:37:11;;;;;;;21.05;4.85;;;7.40;86.20;;;;;;5034664;28;20071;-76
2024/01/23 02:39:36;;;;;;;20.25;4.00;;;7.40;86.30;;;;;;5036860;28;20030;-76
2024/01/23 02:42:02;;;;;;;23.25;3.88;;;7.40;86.40;;;;;;5042556;28;20075;-76
2024/01/23 02:44:28;;;;;;;19.45;4.38;;;7.40;86.40;;;;;;5045097;28;20035;-76
2024/01/23 02:46:53;;;;;;;27.35;5.22;;;7.40;86.50;;;;;;5038299;28;20104;-76
2024/01/23 02:49:19;;;;;;;20.35;4.13;;;7.30;86.70;;;;;;5036241;28;20354;-76
2024/01/23 02:51:45;;;;;;;21.80;4.28;;;7.30;86.80;;;;;;5043625;28;20024;-86
2024/01/23 02:54:11;;;;;;;21.02;4.47;;;7.30;86.80;;;;;;5041597;28;20029;-76
2024/01/23 02:56:36;;;;;;;19.08;4.60;;;7.30;87.00;;;;;;5048849;28;20109;-77
2024/01/23 02:59:02;;;;;;;26.45;4.63;;;7.20;86.90;;;;;;5036019;28;20037;-77
2024/01/23 03:01:28;;;;;;;27.23;5.15;;;7.20;86.90;;;;;;5037604;28;20020;-76
2024/01/23 03:03:53;;;;;;;18.17;3.90;;;7.20;87.00;;;;;;5034426;28;20032;-77
2024/01/23 03:06:19;;;;;;;23.88;4.30;;;7.10;87.20;;;;;;5034729;28;20473;-76
2024/01/23 03:08:44;;;;;;;21.20;5.45;;;7.10;87.60;;;;;;5035595;28;20039;-76
2024/01/23 03:11:10;;;;;;;20.05;4.60;;;7.10;87.50;;;;;;5044840;28;20047;-82
2024/01/23 03:13:36;;;;;;;27.55;4.28;;;7.10;87.60;;;;;;5048545;28;20491;-76
2024/01/23 03:16:02;;;;;;;23.40;5.28;;;7.10;87.40;;;;;;5041293;28;20104;-76
2024/01/23 03:18:27;;;;;;;17.63;4.18;;;7.20;87.60;;;;;;5044593;28;20467;-76
2024/01/23 03:20:53;;;;;;;28.52;4.70;;;7.10;87.50;;;;;;5038267;28;20029;-76
2024/01/23 03:23:19;;;;;;;19.50;4.28;;;7.10;87.70;;;;;;5042829;28;20018;-77
2024/01/23 03:25:44;;;;;;;21.10;4.18;;;7.10;87.80;;;;;;5035595;28;20040;-76
2024/01/23 03:28:10;;;;;;;23.13;3.90;;;7.00;87.80;;;;;;5037873;28;20075;-76
2024/01/23 03:30:35;;;;;;;20.90;4.47;;;7.00;88.00;;;;;;5044567;28;20116;-76
2024/01/23 03:33:01;;;;;;;20.70;3.75;;;7.00;88.00;;;;;;5038602;28;20370;-76
2024/01/23 03:35:27;;;;;;;19.25;4.10;;;7.00;87.90;;;;;;5044080;28;20461;-76
2024/01/23 03:37:53;;;;;;;17.92;4.53;;;7.00;87.70;;;;;;5036743;28;20021;-76
2024/01/23 03:40:19;;;;;;;20.23;4.28;;;7.00;88.00;;;;;;5034906;28;20489;-76
2024/01/23 03:42:44;;;;;;;21.58;4.53;;;6.90;88.20;;;;;;5034419;28;20060;-76
2024/01/23 03:45:10;;;;;;;21.05;4.30;;;6.90;88.30;;;;;;5034826;28;20037;-76
2024/01/23 03:47:36;;;;;;;24.92;4.50;;;6.90;88.40;;;;;;5032341;28;20029;-78
2024/01/23 03:50:02;;;;;;;22.00;4.55;;;6.80;88.40;;;;;;5042178;28;20433;-76
2024/01/23 03:52:28;;;;;;;16.10;4.85;;;6.80;88.50;;;;;;5040556;28;20029;-76
2024/01/23 03:54:53;;;;;;;21.67;5.40;;;6.80;88.70;;;;;;5039525;28;20033;-76
2024/01/23 03:57:19;;;;;;;19.70;4.28;;;6.70;88.80;;;;;;5038062;28;20021;-76
2024/01/23 03:59:45;;;;;;;24.27;5.65;;;6.70;88.90;;;;;;5035671;28;20038;-77
2024/01/23 04:02:11;;;;;;;20.20;5.47;;;6.70;88.90;;;;;;5043551;28;20017;-76
2024/01/23 04:04:38;;;;;;;25.77;7.70;;;6.70;88.90;;;;;;5029154;28;20390;-81
2024/01/23 04:07:04;;;;;;;27.52;9.48;;;6.70;88.90;;;;;;5043482;28;20029;-76
2024/01/23 04:09:29;;;;;;;28.80;11.75;;;6.60;88.80;;;;;;5029568;28;20037;-77
2024/01/23 04:11:56;;;;;;;25.77;11.73;;;6.60;88.90;;;;;;5049937;28;20142;-76
2024/01/23 04:14:22;;;;;;;28.77;11.15;;;6.60;89.00;;;;;;5034696;28;20037;-76
2024/01/23 04:16:47;;;;;;;26.58;10.15;;;6.50;89.10;;;;;;5041792;28;20449;-76
2024/01/23 04:19:13;;;;;;;27.20;7.90;;;6.60;89.00;;;;;;5042657;28;20033;-76
2024/01/23 04:21:39;;;;;;;25.55;5.53;;;6.50;88.90;;;;;;5048482;28;20078;-76
2024/01/23 04:24:05;;;;;;;29.75;6.60;;;6.50;89.30;;;;;;5035012;28;20041;-76
2024/01/23 04:26:31;;;;;;;23.48;6.28;;;6.40;89.40;;;;;;5039098;28;21979;-76
2024/01/23 04:28:57;;;;;;;18.30;4.82;;;6.40;89.50;;;;;;5029636;28;20033;-87
2024/01/23 04:31:23;;;;;;;24.48;4.88;;;6.50;89.30;;;;;;5034587;28;20059;-76
2024/01/23 04:33:54;;;;;;;23.30;5.25;;;6.50;89.20;;;;;;5039993;28;20163;-77
2024/01/23 04:36:19;;;;;;;20.75;4.32;;;6.50;89.10;;;;;;5046438;28;20455;-76
2024/01/23 04:38:45;;;;;;;25.02;5.57;;;6.40;89.20;;;;;;5041192;28;20374;-76
2024/01/23 04:41:11;;;;;;;21.48;5.20;;;6.40;89.20;;;;;;5044797;28;20103;-76
2024/01/23 04:43:38;;;;;;;27.35;5.10;;;6.40;89.30;;;;;;5039906;28;20423;-81
2024/01/23 04:46:05;;;;;;;21.55;4.90;;;6.40;89.40;;;;;;5046584;28;20044;-76
2024/01/23 04:48:30;;;;;;;22.42;3.95;;;6.40;89.20;;;;;;5034056;28;20044;-77
2024/01/23 04:50:56;;;;;;;22.45;5.32;;;6.30;89.20;;;;;;5040857;28;20032;-76
2024/01/23 04:53:22;;;;;;;21.70;5.40;;;6.30;89.20;;;;;;5033997;28;20135;-76
2024/01/23 04:55:48;;;;;;;22.15;4.30;;;6.20;89.40;;;;;;5038210;28;20033;-77
2024/01/23 04:58:14;;;;;;;21.30;4.28;;;6.20;89.40;;;;;;5038936;28;20047;-84
2024/01/23 05:00:39;;;;;;;18.80;4.25;;;6.20;89.70;;;;;;5036169;28;20021;-77
2024/01/23 05:03:05;;;;;;;23.20;5.20;;;6.20;89.60;;;;;;5033233;28;20426;-77
2024/01/23 05:05:33;;;;;;;25.95;4.65;;;6.20;89.50;;;;;;5043036;28;20516;-77
2024/01/23 05:07:59;;;;;;;21.25;4.25;;;6.20;89.40;;;;;;5037362;28;20061;-76
2024/01/23 05:10:25;;;;;;;21.65;5.25;;;6.20;89.20;;;;;;5041145;28;20067;-76
2024/01/23 05:12:51;;;;;;;24.95;5.32;;;6.20;89.40;;;;;;5049472;28;20023;-77
2024/01/23 05:15:16;;;;;;;20.98;6.15;;;6.10;89.40;;;;;;5036742;28;20044;-77
2024/01/23 05:17:42;;;;;;;23.95;4.97;;;6.10;89.30;;;;;;5037874;28;20025;-76
2024/01/23 05:20:08;;;;;;;25.35;4.72;;;6.10;89.50;;;;;;5041117;28;20043;-77
2024/01/23 05:22:34;;;;;;;26.40;4.65;;;6.00;89.70;;;;;;5033584;28;21056;-87
2024/01/23 05:25:00;;;;;;;19.73;4.75;;;6.00;89.60;;;;;;5046255;28;20037;-76
2024/01/23 05:27:26;;;;;;;18.85;4.68;;;6.00;89.80;;;;;;5035947;28;20087;-79
2024/01/23 05:29:52;;;;;;;20.90;4.78;;;5.90;89.80;;;;;;5039659;28;20115;-77
2024/01/23 05:32:17;;;;;;;23.77;5.05;;;5.90;89.80;;;;;;5033122;28;20048;-76
2024/01/23 05:34:43;;;;;;;20.77;5.38;;;5.80;90.00;;;;;;5036357;28;20045;-77
2024/01/23 05:37:12;;;;;;;20.73;5.95;;;5.80;90.10;;;;;;5039491;28;20052;-77
2024/01/23 05:39:38;;;;;;;23.45;5.38;;;5.70;90.10;;;;;;5042380;28;20037;-76
2024/01/23 05:42:06;;;;;;;27.48;5.25;;;5.70;90.10;;;;;;5036826;28;20037;-77
2024/01/23 05:44:33;;;;;;;17.83;4.82;;;5.70;90.20;;;;;;5032159;28;20473;-77
2024/01/23 05:46:58;;;;;;;25.35;5.35;;;5.60;90.20;;;;;;5032401;28;20117;-77
2024/01/23 05:49:24;;;;;;;22.17;5.28;;;5.60;90.20;;;;;;5041711;28;20068;-77
2024/01/23 05:51:50;;;;;;;24.42;5.45;;;5.60;90.30;;;;;;5043275;28;20021;-77
2024/01/23 05:54:15;;;;;;;21.77;5.18;;;5.60;90.40;;;;;;5036386;28;20021;-77
2024/01/23 05:56:41;;;;;;;23.48;4.82;;;5.50;90.50;;;;;;5045936;28;20025;-76
2024/01/23 05:59:07;;;;;;;21.77;4.75;;;5.60;90.90;;;;;;5033143;28;20489;-76
2024/01/23 06:01:33;;;;;;;27.50;5.32;;;5.60;90.90;;;;;;5037656;28;20033;-77
2024/01/23 06:03:59;;;;;;;21.35;4.85;;;5.60;90.90;;;;;;5039630;28;20070;-79
2024/01/23 06:06:25;;;;;;;27.83;6.00;;;5.50;90.90;;;;;;5039853;28;20112;-77
2024/01/23 06:08:51;;;;;;;21.10;4.88;;;5.60;90.90;;;;;;5037483;28;20480;-77
2024/01/23 06:11:17;;;;;;;33.97;6.50;;;5.50;90.70;;;;;;5044342;28;20705;-77
2024/01/23 06:13:43;;;;;;;23.70;5.38;;;5.50;90.80;;;;;;5042384;28;20025;-77
2024/01/23 06:16:09;;;;;;;25.73;5.25;;;5.50;90.80;;;;;;5044338;28;20121;-76
2024/01/23 06:18:35;;;;;;;29.45;6.07;;;5.40;90.90;;;;;;5036981;28;20052;-76
2024/01/23 06:21:04;;;;;;;33.78;6.13;;;5.30;90.90;;;;;;5043419;28;20022;-84
2024/01/23 06:23:29;;;;;;;26.90;6.55;;;5.30;91.10;;;;;;5036043;28;20439;-79
2024/01/23 06:25:55;;;;;;;25.58;5.47;;;5.20;91.10;;;;;;5039974;28;20128;-77
2024/01/23 06:28:23;;;;;;;20.70;4.95;;;5.20;91.30;;;;;;5033593;28;20058;-76
2024/01/23 06:30:48;;;;;;;29.25;5.90;;;5.20;91.50;;;;;;5033060;28;20041;-77
2024/01/23 06:33:14;;;;;;;24.25;5.65;;;5.20;91.50;;;;;;5036086;28;20025;-76
2024/01/23 06:35:40;;;;;;;22.60;5.35;;;5.10;91.60;;;;;;5041856;28;20053;-82
2024/01/23 06:38:05;;;;;;;27.40;6.15;;;5.20;91.60;;;;;;5046971;28;20016;-76
2024/01/23 06:40:32;;;;;;;23.83;5.18;;;5.10;91.70;;;;;;5036421;28;20087;-77
2024/01/23 06:42:58;;;;;;;24.90;5.50;;;5.10;91.70;;;;;;5042561;28;20037;-75
2024/01/23 06:45:23;;;;;;;29.63;5.70;;;5.00;91.80;;;;;;5031601;28;20033;-75
2024/01/23 06:47:49;;;;;;;24.17;5.45;;;5.10;92.10;;;;;;5043963;28;20032;-75
2024/01/23 06:50:15;;;;;;;23.85;6.88;;;5.10;92.10;;;;;;5040219;28;20097;-75
2024/01/23 06:52:40;;;;;;;27.00;5.55;;;5.00;92.20;;;;;;5045258;28;20055;-77
2024/01/23 06:55:06;;;;;;;24.00;5.80;;;5.10;92.20;;;;;;5035546;28;20040;-75
2024/01/23 06:57:32;;;;;;;28.98;6.20;;;5.10;92.30;;;;;;5035065;28;20067;-78
2024/01/23 06:59:58;;;;;;;22.42;5.25;;;5.00;92.30;;;;;;5041376;28;20037;-75
2024/01/23 07:02:23;;;;;;;27.60;4.80;;;5.10;92.40;;;;;;5045722;28;20028;-76
2024/01/23 07:04:49;;;;;;;27.17;5.72;;;5.10;92.50;;;;;;5049622;27;20025;-76
2024/01/23 07:07:14;;;;;;;26.77;6.22;;;5.10;92.50;;;;;;5044093;28;20033;-75
2024/01/23 07:09:40;;;;;;;29.17;6.70;;;5.00;92.50;;;;;;5042027;28;20067;-75
2024/01/23 07:12:06;;;;;;;28.52;6.03;;;5.10;92.60;;;;;;5042121;28;20032;-75
2024/01/23 07:14:32;;;;;;;26.50;5.38;;;5.10;92.70;;;;;;5037870;28;20052;-75
2024/01/23 07:16:57;;;;;;;27.00;6.18;;;5.10;92.70;;;;;;5044619;28;20362;-75
2024/01/23 07:19:23;;;;;;;27.30;6.90;;;5.10;92.70;;;;;;5037426;28;20086;-73
2024/01/23 07:21:48;;;;;;;24.83;6.72;;;5.10;92.70;;;;;;5032596;28;20108;-74
2024/01/23 07:24:14;;;;;;;26.52;5.68;;;5.20;92.70;;;;;;5033141;28;20036;-74
2024/01/23 07:26:40;;;;;;;28.65;6.47;;;5.20;92.70;;;;;;5037022;28;20184;-74
2024/01/23 07:29:05;;;;;;;22.08;5.38;;;5.30;92.80;;;;;;5038696;28;20120;-75
2024/01/23 07:31:31;;;;;;;32.80;6.90;;;5.30;92.60;;;;;;5031798;28;20025;-74
2024/01/23 07:33:57;;;;;;;28.83;6.55;;;5.40;92.60;;;;;;5034395;28;20041;-74
2024/01/23 07:36:23;;;;;;;28.42;5.35;;;5.40;92.60;;;;;;5037592;28;20052;-74
2024/01/23 07:38:49;;;;;;;28.98;6.22;;;5.50;92.40;;;;;;5045132;28;20021;-74
2024/01/23 07:41:14;;;;;;;24.95;4.97;;;5.60;92.40;;;;;;5044466;28;20555;-74
2024/01/23 07:43:40;;;;;;;29.63;6.18;;;5.60;92.40;;;;;;5038625;28;20029;-74
2024/01/23 07:46:06;;;;;;;26.50;6.55;;;5.70;92.30;;;;;;5037822;28;20531;-74
2024/01/23 07:48:31;;;;;;;25.08;6.20;;;5.70;92.30;;;;;;5023416;28;20025;-75
2024/01/23 07:50:57;;;;;;;33.90;6.15;;;5.80;92.10;;;;;;5033357;28;20062;-75
2024/01/23 07:53:23;;;;;;;26.38;5.63;;;5.80;92.10;;;;;;5034784;28;20212;-75
2024/01/23 07:55:48;;;;;;;32.85;6.22;;;5.90;91.90;;;;;;5047215;28;20457;-75
2024/01/23 07:58:14;;;;;;;24.48;5.90;;;5.90;91.90;;;;;;5038273;28;20025;-75
2024/01/23 08:00:43;;;;;;;22.95;4.43;;;6.00;91.90;;;;;;5040253;28;20032;-74
2024/01/23 08:03:09;;;;;;;27.70;7.28;;;6.10;91.80;;;;;;5031155;28;20107;-76
2024/01/23 08:05:35;;;;;;;27.90;6.50;;;6.10;91.70;;;;;;5040940;28;20175;-74
2024/01/23 08:08:01;;;;;;;27.27;6.10;;;6.10;91.70;;;;;;5041663;28;20541;-73
2024/01/23 08:10:26;;;;;;;24.70;5.35;;;6.10;91.60;;;;;;5033723;28;20082;-74
2024/01/23 08:12:53;;;;;;;24.85;6.20;;;6.10;91.60;;;;;;5047167;28;20024;-74
2024/01/23 08:15:19;;;;;;;31.77;7.72;;;6.20;91.60;;;;;;5031822;28;20071;-74
2024/01/23 08:17:45;;;;;;;27.02;6.93;;;6.10;91.60;;;;;;5041903;28;20133;-74
2024/01/23 08:20:11;;;;;;;29.10;8.15;;;6.10;91.60;;;;;;5032045;28;20028;-71
2024/01/23 08:22:36;;;;;;;27.13;6.47;;;6.10;91.60;;;;;;5036500;28;20044;-73
2024/01/23 08:25:02;;;;;;;30.30;6.65;;;6.10;91.70;;;;;;5036607;28;20470;-73
2024/01/23 08:27:28;;;;;;;34.95;6.95;;;6.20;91.70;;;;;;5030644;28;20298;-76
2024/01/23 08:29:54;;;;;;;25.77;6.35;;;6.10;91.70;;;;;;5031906;28;20358;-77
2024/01/23 08:32:19;;;;;;;32.95;6.93;;;6.10;91.80;;;;;;5032417;28;20024;-72
2024/01/23 08:34:45;;;;;;;30.42;7.80;;;6.10;91.90;;;;;;5032703;28;20067;-72
2024/01/23 08:37:10;;;;;;;30.90;7.95;;;6.10;92.00;;;;;;5044491;28;20024;-72
2024/01/23 08:39:36;;;;;;;28.77;8.38;;;6.10;92.20;;;;;;5031269;28;20017;-72
2024/01/23 08:42:03;;;;;;;31.98;7.75;;;6.10;92.20;;;;;;5029655;28;20105;-72
2024/01/23 08:44:29;;;;;;;28.10;7.47;;;6.10;92.50;;;;;;5043769;28;20028;-72
2024/01/23 08:46:54;;;;;;;29.65;7.80;;;6.20;92.60;;;;;;5045741;28;20044;-72
2024/01/23 08:49:20;;;;;;;29.08;7.93;;;6.30;92.60;;;;;;5037281;28;20045;-73
2024/01/23 08:51:46;;;;;;;35.10;8.32;;;6.50;92.60;;;;;;5039678;28;20022;-72
2024/01/23 08:54:18;;;;;;;28.13;6.28;;;6.60;92.60;;;;;;5035863;28;20028;-72
2024/01/23 08:56:46;;;;;;;33.33;6.85;;;6.70;92.30;;;;;;5035276;28;20027;-72
2024/01/23 08:59:13;;;;;;;31.75;8.32;;;6.80;92.20;;;;;;5029728;28;20037;-73
2024/01/23 09:01:39;;;;;;;31.13;7.38;;;7.00;91.90;;;;;;5051146;28;20017;-73
2024/01/23 09:04:06;;;;;;;33.17;7.70;;;7.10;91.70;;;;;;5035686;28;20044;-74
2024/01/23 09:06:31;;;;;;;30.73;9.13;;;7.10;91.30;;;;;;5046444;28;20108;-73
2024/01/23 09:08:57;;;;;;;34.22;9.80;;;7.20;91.20;;;;;;5036366;28;20112;-74
2024/01/23 09:11:23;;;;;;;34.70;9.90;;;7.20;91.20;;;;;;5037947;28;20021;-75
2024/01/23 09:13:50;;;;;;;33.22;9.32;;;7.30;91.10;;;;;;5038633;28;20417;-74
2024/01/23 09:16:17;;;;;;;41.38;10.82;;;7.30;91.00;;;;;;5039837;28;20024;-75
2024/01/23 09:18:48;;;;;;;34.17;10.52;;;7.30;91.00;;;;;;5026121;28;20422;-78
2024/01/23 09:21:14;;;;;;;34.40;8.93;;;7.20;91.00;;;;;;5032276;28;20012;-74
2024/01/23 09:23:42;;;;;;;43.05;10.27;;;7.20;91.10;;;;;;5028062;28;20488;-74
2024/01/23 09:26:12;;;;;;;39.50;10.70;;;7.20;91.40;;;;;;5036058;28;20533;-74
2024/01/23 09:28:38;;;;;;;34.38;9.35;;;7.30;91.50;;;;;;5035409;28;20029;-74
2024/01/23 09:31:04;;;;;;;35.85;9.02;;;7.30;91.60;;;;;;5040507;28;20508;-75
2024/01/23 09:33:30;;;;;;;40.08;10.05;;;7.30;91.70;;;;;;5037644;28;20083;-79
2024/01/23 09:35:56;;;;;;;36.50;8.88;;;7.40;91.80;;;;;;5038509;28;20124;-74
2024/01/23 09:38:21;;;;;;;48.33;14.52;;;7.50;91.90;;;;;;5037733;28;20467;-74
2024/01/23 09:40:49;;;;;;;41.53;13.50;;;7.60;92.00;;;;;;5031293;28;20074;-75
2024/01/23 09:43:20;;;;;;;45.33;12.07;;;7.70;91.80;;;;;;5040125;28;20025;-74
2024/01/23 09:45:50;;;;;;;43.33;10.90;;;7.80;91.80;;;;;;5032545;28;20029;-75
2024/01/23 09:48:16;;;;;;;55.28;15.00;;;7.80;91.70;;;;;;5032783;28;20025;-75
2024/01/23 09:50:44;;;;;;;34.47;9.82;;;8.00;91.60;;;;;;5039799;28;20487;-74
2024/01/23 09:53:10;;;;;;;39.17;8.32;;;8.10;91.50;;;;;;5036462;28;20079;-74
2024/01/23 09:55:37;;;;;;;40.15;8.82;;;8.10;91.40;;;;;;5038997;28;20111;-73
2024/01/23 09:58:03;;;;;;;43.88;8.93;;;8.10;91.30;;;;;;5028521;28;20481;-75
2024/01/23 10:00:30;;;;;;;44.95;9.52;;;8.10;91.40;;;;;;5029919;28;20055;-75
2024/01/23 10:02:56;;;;;;;42.13;12.93;;;8.20;91.20;;;;;;5033507;28;20460;-74
2024/01/23 10:05:25;;;;;;;39.03;11.35;;;8.10;91.30;;;;;;5041521;28;20037;-74
2024/01/23 10:07:50;;;;;;;37.40;8.93;;;8.20;91.60;;;;;;5041556;28;20023;-75
2024/01/23 10:10:17;;;;;;;39.83;9.40;;;8.20;91.70;;;;;;5035148;28;20390;-75
2024/01/23 10:12:46;;;;;;;41.13;9.57;;;8.20;91.90;;;;;;5031287;28;20025;-74
2024/01/23 10:15:16;;;;;;;44.75;10.40;;;8.20;92.00;;;;;;5035366;28;20028;-73
2024/01/23 10:17:44;;;;;;;53.88;17.33;;;8.30;92.00;;;;;;5033008;28;20120;-81
2024/01/23 10:20:10;;;;;;;51.85;20.15;;;8.30;92.10;;;;;;5033357;28;20048;-74
2024/01/23 10:22:36;;;;;;;62.55;21.40;;;8.30;92.20;;;;;;5029795;28;20021;-72
2024/01/23 10:25:03;;;;;;;64.47;25.50;;;8.30;92.20;;;;;;5030524;28;20408;-75
2024/01/23 10:27:30;;;;;;;58.28;17.65;;;8.40;92.10;;;;;;5038544;28;20039;-73
2024/01/23 10:29:56;;;;;;;37.92;11.02;;;8.40;92.20;;;;;;5037335;28;20116;-73
2024/01/23 10:32:28;;;;;;;44.90;11.82;;;8.40;92.10;;;;;;5029612;28;20107;-74
2024/01/23 10:34:56;;;;;;;41.00;11.27;;;8.40;92.10;;;;;;5036994;28;20037;-74
2024/01/23 10:37:22;;;;;;;49.50;12.05;;;8.40;92.00;;;;;;5039756;28;20029;-72
2024/01/23 10:39:51;;;;;;;57.97;12.32;;;8.50;92.20;;;;;;5038942;28;20043;-73
2024/01/23 10:42:18;;;;;;;40.75;10.15;;;8.50;92.10;;;;;;5038084;28;20021;-72
2024/01/23 10:44:50;;;;;;;43.90;11.80;;;8.50;92.10;;;;;;5030161;28;20037;-73
2024/01/23 10:47:19;;;;;;;48.13;11.93;;;8.50;92.00;;;;;;5030880;28;20033;-74
2024/01/23 10:49:46;;;;;;;36.70;8.93;;;8.40;92.00;;;;;;5027497;28;20083;-74
2024/01/23 10:52:17;;;;;;;43.78;9.23;;;8.50;92.10;;;;;;5039458;28;20044;-73
2024/01/23 10:54:47;;;;;;;38.42;8.52;;;8.60;92.10;;;;;;5037466;28;20119;-75
2024/01/23 10:57:22;;;;;;;43.97;10.43;;;8.60;92.10;;;;;;5030747;28;20021;-74
2024/01/23 10:59:48;;;;;;;41.67;11.48;;;8.60;91.80;;;;;;5040773;28;20049;-75
2024/01/23 11:02:26;;;;;;;42.53;11.90;;;8.70;91.80;;;;;;5043600;28;20024;-71
2024/01/23 11:04:52;;;;;;;39.35;12.45;;;8.80;91.80;;;;;;5036315;28;20028;-73
2024/01/23 11:07:40;;;;;;;42.25;12.50;;;8.90;91.50;;;;;;5036046;28;20044;-74
2024/01/23 11:10:27;;;;;;;53.30;20.48;;;9.00;91.30;;;;;;5052556;28;20497;-74
2024/01/23 11:13:11;;;;;;;78.45;37.85;;;9.10;91.30;;;;;;5060761;28;20021;-74
2024/01/23 11:15:38;;;;;;;53.65;23.05;;;9.10;91.20;;;;;;5075003;28;20031;-76
2024/01/23 11:18:26;;;;;;;53.63;20.95;;;9.10;91.10;;;;;;5071177;28;20052;-77
2024/01/23 11:21:12;;;;;;;44.58;16.55;;;9.20;90.80;;;;;;5054894;28;20087;-78
2024/01/23 11:23:40;;;;;;;45.25;14.82;;;9.20;90.70;;;;;;5052378;28;20306;-74
2024/01/23 11:26:26;;;;;;;41.80;12.45;;;9.20;90.70;;;;;;5055338;28;20477;-76
2024/01/23 11:29:07;;;;;;;35.90;12.13;;;9.10;90.70;;;;;;5054284;28;20037;-76
2024/01/23 11:31:40;;;;;;;42.58;11.32;;;9.10;91.00;;;;;;5053579;28;20019;-75
2024/01/23 11:34:25;;;;;;;37.38;10.82;;;9.10;91.20;;;;;;5039001;28;20044;-76
2024/01/23 11:36:51;;;;;;;39.67;11.05;;;9.20;91.30;;;;;;5040218;28;20392;-75
2024/01/23 11:39:27;;;;;;;35.20;11.98;;;9.20;91.20;;;;;;5034631;28;20120;-74
2024/01/23 11:41:55;;;;;;;40.70;11.55;;;9.20;91.20;;;;;;5034672;28;20128;-78
2024/01/23 11:44:21;;;;;;;36.65;9.57;;;9.30;91.20;;;;;;5040675;28;20179;-76
2024/01/23 11:46:48;;;;;;;30.55;8.43;;;9.30;91.20;;;;;;5048277;28;20404;-76
2024/01/23 11:49:15;;;;;;;30.50;7.70;;;9.30;90.90;;;;;;5033819;28;20115;-77
2024/01/23 11:51:42;;;;;;;33.10;8.25;;;9.30;91.00;;;;;;5041405;28;20327;-78
2024/01/23 11:54:09;;;;;;;38.45;9.05;;;9.40;90.90;;;;;;5035329;28;20055;-78
2024/01/23 11:56:40;;;;;;;33.38;9.32;;;9.30;91.00;;;;;;5038471;28;20009;-81
2024/01/23 11:59:06;;;;;;;33.78;8.57;;;9.20;91.00;;;;;;5044930;28;20020;-77
2024/01/23 12:01:34;;;;;;;34.33;9.02;;;9.20;91.20;;;;;;5039826;28;20029;-78
2024/01/23 12:04:02;;;;;;;32.38;7.88;;;9.30;91.40;;;;;;5028407;28;20474;-78
2024/01/23 12:06:29;;;;;;;39.45;10.68;;;9.40;91.60;;;;;;5034230;28;20431;-77
2024/01/23 12:08:55;;;;;;;46.72;13.35;;;9.30;91.80;;;;;;5038672;28;20139;-78
2024/01/23 12:11:20;;;;;;;42.97;9.80;;;9.30;92.00;;;;;;5044545;28;20354;-77
2024/01/23 12:13:48;;;;;;;36.97;9.27;;;9.30;92.30;;;;;;5039085;28;20017;-78
2024/01/23 12:16:14;;;;;;;33.45;9.20;;;9.40;92.50;;;;;;5040854;28;20021;-78
2024/01/23 12:18:40;;;;;;;32.33;10.32;;;9.40;92.50;;;;;;5037421;28;20364;-77
2024/01/23 12:21:06;;;;;;;30.23;8.10;;;9.50;92.50;;;;;;5032762;28;20025;-78
2024/01/23 12:23:35;;;;;;;28.63;7.65;;;9.60;92.70;;;;;;5029755;28;20471;-77
2024/01/23 12:26:03;;;;;;;34.40;8.32;;;9.50;92.70;;;;;;5038110;28;20024;-78
2024/01/23 12:28:29;;;;;;;32.47;7.55;;;9.60;92.70;;;;;;5054536;28;20056;-81
2024/01/23 12:30:56;;;;;;;27.52;9.15;;;9.60;92.90;;;;;;5052637;28;20386;-80
2024/01/23 12:33:22;;;;;;;30.95;8.70;;;9.60;93.00;;;;;;5053182;28;20025;-79
2024/01/23 12:35:48;;;;;;;33.10;7.70;;;9.60;92.90;;;;;;5073547;27;20214;-78
2024/01/23 12:38:15;;;;;;;28.60;8.30;;;9.40;93.10;;;;;;5074457;28;20074;-78
2024/01/23 12:40:42;;;;;;;29.48;7.72;;;9.40;93.30;;;;;;5073348;28;20346;-77
2024/01/23 12:43:08;;;;;;;42.22;8.32;;;9.30;93.50;;;;;;5054658;28;20017;-78